sensor_id;sensor_type;location;lat;lon;timestamp;P1;durP1;ratioP1;P2;durP2;ratioP2
1174;SDS011;576;48.418;10.074;2023-04-16T00:01:00;1.13;;;1.13;;
1174;SDS011;576;48.418;10.074;2023-04-16T00:03:29;1.30;;;1.20;;
1174;SDS011;576;48.418;10.074;2023-04-16T00:05:57;1.30;;;1.20;;
1174;SDS011;576;48.418;10.074;2023-04-16T00:08:25;1.50;;;1.40;;
1174;SDS011;576;48.418;10.074;2023-04-16T00:10:54;1.67;;;1.20;;
1174;SDS011;576;48.418;10.074;2023-04-16T00:13:22;1.17;;;1.17;;
1174;SDS011;576;48.418;10.074;2023-04-16T00:15:52;0.90;;;0.90;;
1174;SDS011;576;48.418;10.074;2023-04-16T00:18:21;1.00;;;1.00;;
1174;SDS011;576;48.418;10.074;2023-04-16T00:20:49;0.97;;;0.97;;
1174;SDS011;576;48.418;10.074;2023-04-16T00:23:18;1.33;;;1.23;;
1174;SDS011;576;48.418;10.074;2023-04-16T00:25:47;1.30;;;1.20;;
1174;SDS011;576;48.418;10.074;2023-04-16T00:28:15;0.67;;;0.63;;
1174;SDS011;576;48.418;10.074;2023-04-16T00:30:43;1.17;;;1.07;;
1174;SDS011;576;48.418;10.074;2023-04-16T00:33:13;1.30;;;1.20;;
1174;SDS011;576;48.418;10.074;2023-04-16T00:35:41;1.20;;;1.20;;
1174;SDS011;576;48.418;10.074;2023-04-16T00:38:12;0.80;;;0.80;;
1174;SDS011;576;48.418;10.074;2023-04-16T00:40:40;1.30;;;1.20;;
1174;SDS011;576;48.418;10.074;2023-04-16T00:43:09;1.13;;;1.10;;
1174;SDS011;576;48.418;10.074;2023-04-16T00:45:37;2.70;;;1.10;;
1174;SDS011;576;48.418;10.074;2023-04-16T00:48:05;1.73;;;1.00;;
1174;SDS011;576;48.418;10.074;2023-04-16T00:50:35;1.50;;;1.27;;
1174;SDS011;576;48.418;10.074;2023-04-16T00:53:03;0.83;;;0.83;;
1174;SDS011;576;48.418;10.074;2023-04-16T00:55:32;1.20;;;1.10;;
1174;SDS011;576;48.418;10.074;2023-04-16T00:58:01;0.83;;;0.80;;
1174;SDS011;576;48.418;10.074;2023-04-16T01:00:29;1.20;;;1.10;;
1174;SDS011;576;48.418;10.074;2023-04-16T01:02:57;1.23;;;1.13;;
1174;SDS011;576;48.418;10.074;2023-04-16T01:05:26;1.40;;;1.30;;
1174;SDS011;576;48.418;10.074;2023-04-16T01:07:58;1.00;;;0.90;;
1174;SDS011;576;48.418;10.074;2023-04-16T01:10:27;1.27;;;1.20;;
1174;SDS011;576;48.418;10.074;2023-04-16T01:12:55;0.90;;;0.90;;
1174;SDS011;576;48.418;10.074;2023-04-16T01:15:23;1.00;;;0.87;;
1174;SDS011;576;48.418;10.074;2023-04-16T01:17:51;1.27;;;1.20;;
1174;SDS011;576;48.418;10.074;2023-04-16T01:20:19;0.93;;;0.93;;
1174;SDS011;576;48.418;10.074;2023-04-16T01:22:49;1.03;;;1.03;;
1174;SDS011;576;48.418;10.074;2023-04-16T01:25:17;0.80;;;0.80;;
1174;SDS011;576;48.418;10.074;2023-04-16T01:27:47;0.80;;;0.80;;
1174;SDS011;576;48.418;10.074;2023-04-16T01:30:16;1.17;;;0.90;;
1174;SDS011;576;48.418;10.074;2023-04-16T01:32:54;1.37;;;1.27;;
1174;SDS011;576;48.418;10.074;2023-04-16T01:35:23;0.70;;;0.70;;
1174;SDS011;576;48.418;10.074;2023-04-16T01:37:53;1.00;;;1.00;;
1174;SDS011;576;48.418;10.074;2023-04-16T01:40:21;1.00;;;1.00;;
1174;SDS011;576;48.418;10.074;2023-04-16T01:42:49;1.30;;;1.13;;
1174;SDS011;576;48.418;10.074;2023-04-16T01:45:17;1.00;;;1.00;;
1174;SDS011;576;48.418;10.074;2023-04-16T01:47:47;1.23;;;1.10;;
1174;SDS011;576;48.418;10.074;2023-04-16T01:50:16;0.80;;;0.80;;
1174;SDS011;576;48.418;10.074;2023-04-16T01:52:44;0.80;;;0.80;;
1174;SDS011;576;48.418;10.074;2023-04-16T01:55:14;1.10;;;1.00;;
1174;SDS011;576;48.418;10.074;2023-04-16T01:57:43;0.63;;;0.63;;
1174;SDS011;576;48.418;10.074;2023-04-16T02:00:12;0.70;;;0.70;;
1174;SDS011;576;48.418;10.074;2023-04-16T02:02:45;1.17;;;1.07;;
1174;SDS011;576;48.418;10.074;2023-04-16T02:05:22;1.20;;;0.90;;
1174;SDS011;576;48.418;10.074;2023-04-16T02:07:51;0.93;;;0.93;;
1174;SDS011;576;48.418;10.074;2023-04-16T02:10:20;0.80;;;0.80;;
1174;SDS011;576;48.418;10.074;2023-04-16T02:12:49;1.33;;;0.93;;
1174;SDS011;576;48.418;10.074;2023-04-16T02:15:17;0.93;;;0.90;;
1174;SDS011;576;48.418;10.074;2023-04-16T02:17:46;0.67;;;0.63;;
1174;SDS011;576;48.418;10.074;2023-04-16T02:20:16;0.90;;;0.90;;
1174;SDS011;576;48.418;10.074;2023-04-16T02:22:55;0.90;;;0.80;;
1174;SDS011;576;48.418;10.074;2023-04-16T02:25:24;0.70;;;0.70;;
1174;SDS011;576;48.418;10.074;2023-04-16T02:27:54;0.87;;;0.87;;
1174;SDS011;576;48.418;10.074;2023-04-16T02:30:29;0.70;;;0.70;;
1174;SDS011;576;48.418;10.074;2023-04-16T02:33:01;0.77;;;0.77;;
1174;SDS011;576;48.418;10.074;2023-04-16T02:35:31;1.00;;;1.00;;
1174;SDS011;576;48.418;10.074;2023-04-16T02:37:59;0.90;;;0.90;;
1174;SDS011;576;48.418;10.074;2023-04-16T02:40:29;1.00;;;0.90;;
1174;SDS011;576;48.418;10.074;2023-04-16T02:42:58;1.37;;;1.27;;
1174;SDS011;576;48.418;10.074;2023-04-16T02:45:27;0.70;;;0.70;;
1174;SDS011;576;48.418;10.074;2023-04-16T02:47:57;0.97;;;0.97;;
1174;SDS011;576;48.418;10.074;2023-04-16T02:50:26;1.00;;;0.90;;
1174;SDS011;576;48.418;10.074;2023-04-16T02:52:54;1.30;;;0.90;;
1174;SDS011;576;48.418;10.074;2023-04-16T02:55:22;1.27;;;1.17;;
1174;SDS011;576;48.418;10.074;2023-04-16T02:57:52;1.00;;;0.90;;
1174;SDS011;576;48.418;10.074;2023-04-16T03:00:20;0.93;;;0.93;;
1174;SDS011;576;48.418;10.074;2023-04-16T03:02:48;0.73;;;0.73;;
1174;SDS011;576;48.418;10.074;2023-04-16T03:05:17;1.23;;;0.90;;
1174;SDS011;576;48.418;10.074;2023-04-16T03:07:45;0.70;;;0.70;;
1174;SDS011;576;48.418;10.074;2023-04-16T03:10:14;1.37;;;0.77;;
1174;SDS011;576;48.418;10.074;2023-04-16T03:12:42;0.67;;;0.67;;
1174;SDS011;576;48.418;10.074;2023-04-16T03:15:12;0.80;;;0.80;;
1174;SDS011;576;48.418;10.074;2023-04-16T03:17:40;0.77;;;0.73;;
1174;SDS011;576;48.418;10.074;2023-04-16T03:20:08;0.70;;;0.70;;
1174;SDS011;576;48.418;10.074;2023-04-16T03:22:37;0.90;;;0.90;;
1174;SDS011;576;48.418;10.074;2023-04-16T03:25:05;1.00;;;0.73;;
1174;SDS011;576;48.418;10.074;2023-04-16T03:27:34;0.60;;;0.60;;
1174;SDS011;576;48.418;10.074;2023-04-16T03:30:03;0.83;;;0.83;;
1174;SDS011;576;48.418;10.074;2023-04-16T03:32:35;0.77;;;0.77;;
1174;SDS011;576;48.418;10.074;2023-04-16T03:35:03;0.57;;;0.57;;
1174;SDS011;576;48.418;10.074;2023-04-16T03:37:32;0.73;;;0.73;;
1174;SDS011;576;48.418;10.074;2023-04-16T03:40:01;1.27;;;1.00;;
1174;SDS011;576;48.418;10.074;2023-04-16T03:42:30;0.60;;;0.60;;
1174;SDS011;576;48.418;10.074;2023-04-16T03:44:59;0.80;;;0.80;;
1174;SDS011;576;48.418;10.074;2023-04-16T03:47:27;0.80;;;0.80;;
1174;SDS011;576;48.418;10.074;2023-04-16T03:50:00;0.97;;;0.90;;
1174;SDS011;576;48.418;10.074;2023-04-16T03:52:29;1.00;;;0.90;;
1174;SDS011;576;48.418;10.074;2023-04-16T03:54:57;0.80;;;0.80;;
1174;SDS011;576;48.418;10.074;2023-04-16T03:57:28;0.77;;;0.70;;
1174;SDS011;576;48.418;10.074;2023-04-16T04:00:02;1.10;;;1.00;;
1174;SDS011;576;48.418;10.074;2023-04-16T04:02:39;1.03;;;1.03;;
1174;SDS011;576;48.418;10.074;2023-04-16T04:05:16;0.97;;;0.90;;
1174;SDS011;576;48.418;10.074;2023-04-16T04:07:46;0.70;;;0.70;;
1174;SDS011;576;48.418;10.074;2023-04-16T04:10:14;1.00;;;0.70;;
1174;SDS011;576;48.418;10.074;2023-04-16T04:12:42;0.50;;;0.50;;
1174;SDS011;576;48.418;10.074;2023-04-16T04:15:11;0.73;;;0.73;;
1174;SDS011;576;48.418;10.074;2023-04-16T04:17:40;0.83;;;0.83;;
1174;SDS011;576;48.418;10.074;2023-04-16T04:20:09;0.90;;;0.90;;
1174;SDS011;576;48.418;10.074;2023-04-16T04:22:43;0.70;;;0.70;;
1174;SDS011;576;48.418;10.074;2023-04-16T04:25:11;1.47;;;0.80;;
1174;SDS011;576;48.418;10.074;2023-04-16T04:27:40;1.03;;;0.83;;
1174;SDS011;576;48.418;10.074;2023-04-16T04:30:08;0.80;;;0.80;;
1174;SDS011;576;48.418;10.074;2023-04-16T04:32:39;1.30;;;0.90;;
1174;SDS011;576;48.418;10.074;2023-04-16T04:35:08;0.70;;;0.70;;
1174;SDS011;576;48.418;10.074;2023-04-16T04:37:36;1.13;;;1.00;;
1174;SDS011;576;48.418;10.074;2023-04-16T04:40:13;0.70;;;0.70;;
1174;SDS011;576;48.418;10.074;2023-04-16T04:42:41;0.70;;;0.70;;
1174;SDS011;576;48.418;10.074;2023-04-16T04:45:10;0.73;;;0.73;;
1174;SDS011;576;48.418;10.074;2023-04-16T04:47:39;0.70;;;0.70;;
1174;SDS011;576;48.418;10.074;2023-04-16T04:50:09;0.83;;;0.83;;
1174;SDS011;576;48.418;10.074;2023-04-16T04:52:37;0.80;;;0.80;;
1174;SDS011;576;48.418;10.074;2023-04-16T04:55:06;0.60;;;0.60;;
1174;SDS011;576;48.418;10.074;2023-04-16T04:57:36;0.60;;;0.60;;
1174;SDS011;576;48.418;10.074;2023-04-16T05:00:05;0.90;;;0.90;;
1174;SDS011;576;48.418;10.074;2023-04-16T05:02:42;0.63;;;0.63;;
1174;SDS011;576;48.418;10.074;2023-04-16T05:05:10;0.70;;;0.70;;
1174;SDS011;576;48.418;10.074;2023-04-16T05:07:38;0.90;;;0.90;;
1174;SDS011;576;48.418;10.074;2023-04-16T05:10:07;0.70;;;0.70;;
1174;SDS011;576;48.418;10.074;2023-04-16T05:12:37;0.53;;;0.53;;
1174;SDS011;576;48.418;10.074;2023-04-16T05:15:06;0.73;;;0.73;;
1174;SDS011;576;48.418;10.074;2023-04-16T05:17:35;1.03;;;0.93;;
1174;SDS011;576;48.418;10.074;2023-04-16T05:20:04;0.70;;;0.70;;
1174;SDS011;576;48.418;10.074;2023-04-16T05:22:33;1.07;;;0.83;;
1174;SDS011;576;48.418;10.074;2023-04-16T05:25:01;0.60;;;0.60;;
1174;SDS011;576;48.418;10.074;2023-04-16T05:27:30;0.63;;;0.63;;
1174;SDS011;576;48.418;10.074;2023-04-16T05:29:59;0.60;;;0.60;;
1174;SDS011;576;48.418;10.074;2023-04-16T05:32:27;0.90;;;0.90;;
1174;SDS011;576;48.418;10.074;2023-04-16T05:34:55;0.83;;;0.83;;
1174;SDS011;576;48.418;10.074;2023-04-16T05:37:24;0.70;;;0.70;;
1174;SDS011;576;48.418;10.074;2023-04-16T05:39:52;0.60;;;0.60;;
1174;SDS011;576;48.418;10.074;2023-04-16T05:42:20;0.70;;;0.53;;
1174;SDS011;576;48.418;10.074;2023-04-16T05:44:49;0.50;;;0.50;;
1174;SDS011;576;48.418;10.074;2023-04-16T05:47:19;0.70;;;0.70;;
1174;SDS011;576;48.418;10.074;2023-04-16T05:49:47;0.60;;;0.60;;
1174;SDS011;576;48.418;10.074;2023-04-16T05:52:15;0.80;;;0.80;;
1174;SDS011;576;48.418;10.074;2023-04-16T05:54:43;0.83;;;0.83;;
1174;SDS011;576;48.418;10.074;2023-04-16T05:57:12;0.83;;;0.77;;
1174;SDS011;576;48.418;10.074;2023-04-16T05:59:40;0.60;;;0.60;;
1174;SDS011;576;48.418;10.074;2023-04-16T06:02:08;0.63;;;0.63;;
1174;SDS011;576;48.418;10.074;2023-04-16T06:04:38;0.80;;;0.80;;
1174;SDS011;576;48.418;10.074;2023-04-16T06:07:06;0.70;;;0.70;;
1174;SDS011;576;48.418;10.074;2023-04-16T06:09:35;0.50;;;0.50;;
1174;SDS011;576;48.418;10.074;2023-04-16T06:12:03;0.70;;;0.60;;
1174;SDS011;576;48.418;10.074;2023-04-16T06:14:31;0.73;;;0.73;;
1174;SDS011;576;48.418;10.074;2023-04-16T06:17:00;0.50;;;0.50;;
1174;SDS011;576;48.418;10.074;2023-04-16T06:19:28;1.33;;;0.83;;
1174;SDS011;576;48.418;10.074;2023-04-16T06:21:57;0.70;;;0.70;;
1174;SDS011;576;48.418;10.074;2023-04-16T06:24:26;0.80;;;0.80;;
1174;SDS011;576;48.418;10.074;2023-04-16T06:26:54;0.80;;;0.70;;
1174;SDS011;576;48.418;10.074;2023-04-16T06:29:22;0.77;;;0.77;;
1174;SDS011;576;48.418;10.074;2023-04-16T06:32:05;0.73;;;0.73;;
1174;SDS011;576;48.418;10.074;2023-04-16T06:34:34;1.17;;;0.67;;
1174;SDS011;576;48.418;10.074;2023-04-16T06:37:03;0.63;;;0.63;;
1174;SDS011;576;48.418;10.074;2023-04-16T06:39:35;0.57;;;0.57;;
1174;SDS011;576;48.418;10.074;2023-04-16T06:42:03;1.23;;;1.13;;
1174;SDS011;576;48.418;10.074;2023-04-16T06:44:32;0.73;;;0.73;;
1174;SDS011;576;48.418;10.074;2023-04-16T06:47:00;0.90;;;0.60;;
1174;SDS011;576;48.418;10.074;2023-04-16T06:49:28;1.03;;;0.60;;
1174;SDS011;576;48.418;10.074;2023-04-16T06:51:56;0.83;;;0.83;;
1174;SDS011;576;48.418;10.074;2023-04-16T06:54:26;0.60;;;0.60;;
1174;SDS011;576;48.418;10.074;2023-04-16T06:56:54;0.63;;;0.63;;
1174;SDS011;576;48.418;10.074;2023-04-16T06:59:22;0.97;;;0.87;;
1174;SDS011;576;48.418;10.074;2023-04-16T07:01:50;0.73;;;0.73;;
1174;SDS011;576;48.418;10.074;2023-04-16T07:04:19;0.77;;;0.77;;
1174;SDS011;576;48.418;10.074;2023-04-16T07:06:47;0.93;;;0.70;;
1174;SDS011;576;48.418;10.074;2023-04-16T07:09:16;0.50;;;0.50;;
1174;SDS011;576;48.418;10.074;2023-04-16T07:11:45;0.70;;;0.70;;
1174;SDS011;576;48.418;10.074;2023-04-16T07:14:13;0.70;;;0.70;;
1174;SDS011;576;48.418;10.074;2023-04-16T07:16:41;0.50;;;0.50;;
1174;SDS011;576;48.418;10.074;2023-04-16T07:19:10;0.60;;;0.60;;
1174;SDS011;576;48.418;10.074;2023-04-16T07:21:38;0.70;;;0.70;;
1174;SDS011;576;48.418;10.074;2023-04-16T07:24:07;0.70;;;0.70;;
1174;SDS011;576;48.418;10.074;2023-04-16T07:26:36;0.63;;;0.60;;
1174;SDS011;576;48.418;10.074;2023-04-16T07:29:05;0.50;;;0.50;;
1174;SDS011;576;48.418;10.074;2023-04-16T07:31:34;0.60;;;0.60;;
1174;SDS011;576;48.418;10.074;2023-04-16T07:34:02;1.10;;;0.73;;
1174;SDS011;576;48.418;10.074;2023-04-16T07:36:31;1.23;;;0.60;;
1174;SDS011;576;48.418;10.074;2023-04-16T07:38:59;1.73;;;1.00;;
1174;SDS011;576;48.418;10.074;2023-04-16T07:41:27;0.50;;;0.50;;
1174;SDS011;576;48.418;10.074;2023-04-16T07:43:55;0.80;;;0.77;;
1174;SDS011;576;48.418;10.074;2023-04-16T07:46:25;1.53;;;0.97;;
1174;SDS011;576;48.418;10.074;2023-04-16T07:49:08;0.90;;;0.60;;
1174;SDS011;576;48.418;10.074;2023-04-16T07:51:37;0.80;;;0.63;;
1174;SDS011;576;48.418;10.074;2023-04-16T07:54:05;0.90;;;0.70;;
1174;SDS011;576;48.418;10.074;2023-04-16T07:56:33;0.67;;;0.67;;
1174;SDS011;576;48.418;10.074;2023-04-16T07:59:01;0.70;;;0.70;;
1174;SDS011;576;48.418;10.074;2023-04-16T08:01:45;0.60;;;0.60;;
1174;SDS011;576;48.418;10.074;2023-04-16T08:04:13;1.20;;;0.80;;
1174;SDS011;576;48.418;10.074;2023-04-16T08:06:48;0.80;;;0.80;;
1174;SDS011;576;48.418;10.074;2023-04-16T08:09:17;0.77;;;0.77;;
1174;SDS011;576;48.418;10.074;2023-04-16T08:11:47;0.97;;;0.90;;
1174;SDS011;576;48.418;10.074;2023-04-16T08:14:19;1.60;;;0.70;;
1174;SDS011;576;48.418;10.074;2023-04-16T08:16:49;0.60;;;0.60;;
1174;SDS011;576;48.418;10.074;2023-04-16T08:19:17;0.77;;;0.77;;
1174;SDS011;576;48.418;10.074;2023-04-16T08:21:46;0.80;;;0.70;;
1174;SDS011;576;48.418;10.074;2023-04-16T08:24:14;0.93;;;0.63;;
1174;SDS011;576;48.418;10.074;2023-04-16T08:26:42;0.80;;;0.60;;
1174;SDS011;576;48.418;10.074;2023-04-16T08:29:10;0.60;;;0.50;;
1174;SDS011;576;48.418;10.074;2023-04-16T08:31:39;0.50;;;0.43;;
1174;SDS011;576;48.418;10.074;2023-04-16T08:34:09;0.70;;;0.70;;
1174;SDS011;576;48.418;10.074;2023-04-16T08:36:38;0.83;;;0.60;;
1174;SDS011;576;48.418;10.074;2023-04-16T08:39:07;0.60;;;0.60;;
1174;SDS011;576;48.418;10.074;2023-04-16T08:41:35;0.70;;;0.50;;
1174;SDS011;576;48.418;10.074;2023-04-16T08:44:07;1.27;;;0.40;;
1174;SDS011;576;48.418;10.074;2023-04-16T08:46:39;0.80;;;0.60;;
1174;SDS011;576;48.418;10.074;2023-04-16T08:49:12;0.47;;;0.47;;
1174;SDS011;576;48.418;10.074;2023-04-16T08:51:44;0.73;;;0.60;;
1174;SDS011;576;48.418;10.074;2023-04-16T08:54:20;4.57;;;1.07;;
1174;SDS011;576;48.418;10.074;2023-04-16T08:56:57;0.60;;;0.60;;
1174;SDS011;576;48.418;10.074;2023-04-16T08:59:27;1.20;;;0.50;;
1174;SDS011;576;48.418;10.074;2023-04-16T09:01:56;0.50;;;0.50;;
1174;SDS011;576;48.418;10.074;2023-04-16T09:04:27;0.63;;;0.50;;
1174;SDS011;576;48.418;10.074;2023-04-16T09:06:57;0.70;;;0.60;;
1174;SDS011;576;48.418;10.074;2023-04-16T09:09:25;2.47;;;0.60;;
1174;SDS011;576;48.418;10.074;2023-04-16T09:11:55;0.90;;;0.77;;
1174;SDS011;576;48.418;10.074;2023-04-16T09:14:24;0.60;;;0.60;;
1174;SDS011;576;48.418;10.074;2023-04-16T09:16:53;0.63;;;0.63;;
1174;SDS011;576;48.418;10.074;2023-04-16T09:19:23;0.60;;;0.60;;
1174;SDS011;576;48.418;10.074;2023-04-16T09:21:54;1.17;;;0.60;;
1174;SDS011;576;48.418;10.074;2023-04-16T09:24:22;0.67;;;0.50;;
1174;SDS011;576;48.418;10.074;2023-04-16T09:26:53;1.60;;;0.83;;
1174;SDS011;576;48.418;10.074;2023-04-16T09:29:32;0.50;;;0.50;;
1174;SDS011;576;48.418;10.074;2023-04-16T09:32:03;2.90;;;0.87;;
1174;SDS011;576;48.418;10.074;2023-04-16T09:34:33;0.67;;;0.67;;
1174;SDS011;576;48.418;10.074;2023-04-16T09:37:21;0.97;;;0.90;;
1174;SDS011;576;48.418;10.074;2023-04-16T09:39:54;2.63;;;0.90;;
1174;SDS011;576;48.418;10.074;2023-04-16T09:42:24;0.60;;;0.53;;
1174;SDS011;576;48.418;10.074;2023-04-16T09:44:54;1.63;;;0.67;;
1174;SDS011;576;48.418;10.074;2023-04-16T09:47:36;2.30;;;1.40;;
1174;SDS011;576;48.418;10.074;2023-04-16T09:50:07;2.83;;;0.93;;
1174;SDS011;576;48.418;10.074;2023-04-16T09:52:41;4.87;;;1.30;;
1174;SDS011;576;48.418;10.074;2023-04-16T09:55:15;2.17;;;0.90;;
1174;SDS011;576;48.418;10.074;2023-04-16T09:57:57;2.70;;;1.20;;
1174;SDS011;576;48.418;10.074;2023-04-16T10:00:27;5.30;;;1.47;;
1174;SDS011;576;48.418;10.074;2023-04-16T10:03:03;1.47;;;0.90;;
1174;SDS011;576;48.418;10.074;2023-04-16T10:05:33;4.37;;;1.83;;
1174;SDS011;576;48.418;10.074;2023-04-16T10:08:03;4.30;;;2.40;;
1174;SDS011;576;48.418;10.074;2023-04-16T10:10:39;1.80;;;1.30;;
1174;SDS011;576;48.418;10.074;2023-04-16T10:13:08;1.93;;;1.23;;
1174;SDS011;576;48.418;10.074;2023-04-16T10:15:38;1.97;;;1.17;;
1174;SDS011;576;48.418;10.074;2023-04-16T10:18:07;2.70;;;1.50;;
1174;SDS011;576;48.418;10.074;2023-04-16T10:20:37;4.77;;;1.50;;
1174;SDS011;576;48.418;10.074;2023-04-16T10:23:07;3.03;;;1.23;;
1174;SDS011;576;48.418;10.074;2023-04-16T10:25:37;3.80;;;1.47;;
1174;SDS011;576;48.418;10.074;2023-04-16T10:28:07;2.03;;;1.10;;
1174;SDS011;576;48.418;10.074;2023-04-16T10:30:36;1.20;;;1.10;;
1174;SDS011;576;48.418;10.074;2023-04-16T10:33:07;1.93;;;1.20;;
1174;SDS011;576;48.418;10.074;2023-04-16T10:35:38;2.87;;;1.50;;
1174;SDS011;576;48.418;10.074;2023-04-16T10:38:21;1.63;;;1.03;;
1174;SDS011;576;48.418;10.074;2023-04-16T10:40:57;3.30;;;1.03;;
1174;SDS011;576;48.418;10.074;2023-04-16T10:43:28;2.23;;;1.33;;
1174;SDS011;576;48.418;10.074;2023-04-16T10:46:03;2.33;;;0.80;;
1174;SDS011;576;48.418;10.074;2023-04-16T10:48:45;2.50;;;1.40;;
1174;SDS011;576;48.418;10.074;2023-04-16T10:51:23;2.70;;;1.37;;
1174;SDS011;576;48.418;10.074;2023-04-16T10:54:02;1.20;;;1.10;;
1174;SDS011;576;48.418;10.074;2023-04-16T10:56:32;1.60;;;0.67;;
1174;SDS011;576;48.418;10.074;2023-04-16T10:59:03;2.70;;;1.00;;
1174;SDS011;576;48.418;10.074;2023-04-16T11:01:33;2.60;;;0.80;;
1174;SDS011;576;48.418;10.074;2023-04-16T11:09:54;3.07;;;1.00;;
1174;SDS011;576;48.418;10.074;2023-04-16T11:12:25;1.60;;;0.93;;
1174;SDS011;576;48.418;10.074;2023-04-16T11:14:58;1.20;;;1.10;;
1174;SDS011;576;48.418;10.074;2023-04-16T11:17:31;1.77;;;1.17;;
1174;SDS011;576;48.418;10.074;2023-04-16T11:20:04;0.97;;;0.87;;
1174;SDS011;576;48.418;10.074;2023-04-16T11:22:46;1.67;;;0.90;;
1174;SDS011;576;48.418;10.074;2023-04-16T11:25:19;1.63;;;1.10;;
1174;SDS011;576;48.418;10.074;2023-04-16T11:27:51;1.30;;;0.90;;
1174;SDS011;576;48.418;10.074;2023-04-16T11:30:27;2.20;;;1.20;;
1174;SDS011;576;48.418;10.074;2023-04-16T11:32:56;1.73;;;1.50;;
1174;SDS011;576;48.418;10.074;2023-04-16T11:35:24;1.77;;;0.90;;
1174;SDS011;576;48.418;10.074;2023-04-16T11:37:54;1.17;;;1.00;;
1174;SDS011;576;48.418;10.074;2023-04-16T11:40:26;1.03;;;1.00;;
1174;SDS011;576;48.418;10.074;2023-04-16T11:43:00;1.40;;;0.97;;
1174;SDS011;576;48.418;10.074;2023-04-16T11:45:29;1.27;;;0.80;;
1174;SDS011;576;48.418;10.074;2023-04-16T11:47:58;0.87;;;0.87;;
1174;SDS011;576;48.418;10.074;2023-04-16T11:50:27;1.17;;;0.90;;
1174;SDS011;576;48.418;10.074;2023-04-16T11:52:56;2.00;;;0.77;;
1174;SDS011;576;48.418;10.074;2023-04-16T11:55:33;1.33;;;1.10;;
1174;SDS011;576;48.418;10.074;2023-04-16T11:58:11;1.07;;;0.97;;
1174;SDS011;576;48.418;10.074;2023-04-16T12:00:42;0.90;;;0.80;;
1174;SDS011;576;48.418;10.074;2023-04-16T12:03:11;1.07;;;1.00;;
1174;SDS011;576;48.418;10.074;2023-04-16T12:05:40;0.53;;;0.53;;
1174;SDS011;576;48.418;10.074;2023-04-16T12:08:09;2.80;;;1.20;;
1174;SDS011;576;48.418;10.074;2023-04-16T12:10:52;1.37;;;1.27;;
1174;SDS011;576;48.418;10.074;2023-04-16T12:13:23;0.80;;;0.80;;
1174;SDS011;576;48.418;10.074;2023-04-16T12:15:52;0.80;;;0.63;;
1174;SDS011;576;48.418;10.074;2023-04-16T12:18:21;0.80;;;0.80;;
1174;SDS011;576;48.418;10.074;2023-04-16T12:20:53;0.93;;;0.83;;
1174;SDS011;576;48.418;10.074;2023-04-16T12:23:25;2.40;;;1.00;;
1174;SDS011;576;48.418;10.074;2023-04-16T12:25:56;1.00;;;1.00;;
1174;SDS011;576;48.418;10.074;2023-04-16T12:28:29;1.23;;;0.97;;
1174;SDS011;576;48.418;10.074;2023-04-16T12:30:59;1.27;;;1.17;;
1174;SDS011;576;48.418;10.074;2023-04-16T12:33:28;0.70;;;0.70;;
1174;SDS011;576;48.418;10.074;2023-04-16T12:35:58;1.00;;;0.77;;
1174;SDS011;576;48.418;10.074;2023-04-16T12:38:28;1.80;;;1.30;;
1174;SDS011;576;48.418;10.074;2023-04-16T12:40:58;1.67;;;1.23;;
1174;SDS011;576;48.418;10.074;2023-04-16T12:43:28;1.83;;;0.90;;
1174;SDS011;576;48.418;10.074;2023-04-16T12:45:56;1.90;;;0.67;;
1174;SDS011;576;48.418;10.074;2023-04-16T12:48:26;0.80;;;0.80;;
1174;SDS011;576;48.418;10.074;2023-04-16T12:50:55;0.83;;;0.83;;
1174;SDS011;576;48.418;10.074;2023-04-16T12:53:24;3.30;;;1.43;;
1174;SDS011;576;48.418;10.074;2023-04-16T12:55:52;2.10;;;1.10;;
1174;SDS011;576;48.418;10.074;2023-04-16T12:58:22;1.30;;;0.80;;
1174;SDS011;576;48.418;10.074;2023-04-16T13:00:51;1.50;;;1.13;;
1174;SDS011;576;48.418;10.074;2023-04-16T13:03:20;1.33;;;0.80;;
1174;SDS011;576;48.418;10.074;2023-04-16T13:05:50;3.20;;;1.17;;
1174;SDS011;576;48.418;10.074;2023-04-16T13:08:18;0.80;;;0.80;;
1174;SDS011;576;48.418;10.074;2023-04-16T13:10:47;1.33;;;1.10;;
1174;SDS011;576;48.418;10.074;2023-04-16T13:13:15;1.07;;;0.90;;
1174;SDS011;576;48.418;10.074;2023-04-16T13:15:45;2.37;;;1.13;;
1174;SDS011;576;48.418;10.074;2023-04-16T13:18:13;3.37;;;1.60;;
1174;SDS011;576;48.418;10.074;2023-04-16T13:20:41;2.20;;;1.53;;
1174;SDS011;576;48.418;10.074;2023-04-16T13:23:09;1.53;;;1.40;;
1174;SDS011;576;48.418;10.074;2023-04-16T13:25:38;6.30;;;2.37;;
1174;SDS011;576;48.418;10.074;2023-04-16T13:28:06;6.50;;;1.83;;
1174;SDS011;576;48.418;10.074;2023-04-16T13:30:34;7.40;;;1.60;;
1174;SDS011;576;48.418;10.074;2023-04-16T13:33:04;3.80;;;1.57;;
1174;SDS011;576;48.418;10.074;2023-04-16T13:35:32;4.50;;;2.60;;
1174;SDS011;576;48.418;10.074;2023-04-16T13:38:00;4.43;;;2.00;;
1174;SDS011;576;48.418;10.074;2023-04-16T13:40:28;4.20;;;1.80;;
1174;SDS011;576;48.418;10.074;2023-04-16T13:42:57;4.43;;;2.10;;
1174;SDS011;576;48.418;10.074;2023-04-16T13:45:25;4.00;;;1.87;;
1174;SDS011;576;48.418;10.074;2023-04-16T13:47:53;4.97;;;1.90;;
1174;SDS011;576;48.418;10.074;2023-04-16T13:50:23;4.30;;;2.00;;
1174;SDS011;576;48.418;10.074;2023-04-16T13:52:51;5.73;;;1.80;;
1174;SDS011;576;48.418;10.074;2023-04-16T13:55:19;3.93;;;1.93;;
1174;SDS011;576;48.418;10.074;2023-04-16T13:57:47;4.87;;;2.20;;
1174;SDS011;576;48.418;10.074;2023-04-16T14:00:17;4.30;;;1.70;;
1174;SDS011;576;48.418;10.074;2023-04-16T14:02:46;4.13;;;2.20;;
1174;SDS011;576;48.418;10.074;2023-04-16T14:05:15;3.07;;;1.77;;
1174;SDS011;576;48.418;10.074;2023-04-16T14:07:46;2.83;;;1.83;;
1174;SDS011;576;48.418;10.074;2023-04-16T14:10:14;3.50;;;1.60;;
1174;SDS011;576;48.418;10.074;2023-04-16T14:12:42;2.23;;;1.73;;
1174;SDS011;576;48.418;10.074;2023-04-16T14:15:10;4.77;;;2.27;;
1174;SDS011;576;48.418;10.074;2023-04-16T14:17:40;3.60;;;2.27;;
1174;SDS011;576;48.418;10.074;2023-04-16T14:20:10;2.00;;;1.10;;
1174;SDS011;576;48.418;10.074;2023-04-16T14:22:39;3.30;;;1.70;;
1174;SDS011;576;48.418;10.074;2023-04-16T14:25:10;3.47;;;1.70;;
1174;SDS011;576;48.418;10.074;2023-04-16T14:27:38;2.13;;;1.67;;
1174;SDS011;576;48.418;10.074;2023-04-16T14:30:07;2.80;;;1.50;;
1174;SDS011;576;48.418;10.074;2023-04-16T14:32:36;3.53;;;1.77;;
1174;SDS011;576;48.418;10.074;2023-04-16T14:35:05;4.27;;;2.20;;
1174;SDS011;576;48.418;10.074;2023-04-16T14:37:33;5.53;;;2.10;;
1174;SDS011;576;48.418;10.074;2023-04-16T14:40:04;4.53;;;2.00;;
1174;SDS011;576;48.418;10.074;2023-04-16T14:42:36;2.27;;;1.87;;
1174;SDS011;576;48.418;10.074;2023-04-16T14:45:04;3.33;;;1.90;;
1174;SDS011;576;48.418;10.074;2023-04-16T14:47:34;3.30;;;1.80;;
1174;SDS011;576;48.418;10.074;2023-04-16T14:50:03;2.33;;;1.77;;
1174;SDS011;576;48.418;10.074;2023-04-16T14:52:32;1.87;;;1.57;;
1174;SDS011;576;48.418;10.074;2023-04-16T14:55:00;2.00;;;1.40;;
1174;SDS011;576;48.418;10.074;2023-04-16T14:57:28;1.60;;;1.50;;
1174;SDS011;576;48.418;10.074;2023-04-16T15:00:00;3.37;;;1.53;;
1174;SDS011;576;48.418;10.074;2023-04-16T15:02:32;1.80;;;1.70;;
1174;SDS011;576;48.418;10.074;2023-04-16T15:05:01;3.00;;;1.87;;
1174;SDS011;576;48.418;10.074;2023-04-16T15:07:30;2.90;;;1.50;;
1174;SDS011;576;48.418;10.074;2023-04-16T15:09:58;1.43;;;1.23;;
1174;SDS011;576;48.418;10.074;2023-04-16T15:12:26;3.47;;;2.00;;
1174;SDS011;576;48.418;10.074;2023-04-16T15:14:54;3.13;;;1.60;;
1174;SDS011;576;48.418;10.074;2023-04-16T15:17:24;2.43;;;1.60;;
1174;SDS011;576;48.418;10.074;2023-04-16T15:19:52;1.77;;;1.20;;
1174;SDS011;576;48.418;10.074;2023-04-16T15:22:21;1.67;;;1.40;;
1174;SDS011;576;48.418;10.074;2023-04-16T15:24:49;2.53;;;1.10;;
1174;SDS011;576;48.418;10.074;2023-04-16T15:27:17;4.23;;;2.00;;
1174;SDS011;576;48.418;10.074;2023-04-16T15:29:45;3.77;;;1.37;;
1174;SDS011;576;48.418;10.074;2023-04-16T15:32:14;1.50;;;1.40;;
1174;SDS011;576;48.418;10.074;2023-04-16T15:34:44;3.97;;;1.80;;
1174;SDS011;576;48.418;10.074;2023-04-16T15:37:12;2.63;;;1.73;;